sensor_id;sensor_type;location;lat;lon;timestamp;temperature;humidity
13052;DHT22;6592;47.484;9.726;2022-10-31T00:01:56;10.90;99.90
13052;DHT22;6592;47.484;9.726;2022-10-31T00:04:27;10.80;99.90
13052;DHT22;6592;47.484;9.726;2022-10-31T00:06:58;10.90;99.90
13052;DHT22;6592;47.484;9.726;2022-10-31T00:09:27;10.90;99.90
13052;DHT22;6592;47.484;9.726;2022-10-31T00:11:57;10.90;99.90
13052;DHT22;6592;47.484;9.726;2022-10-31T00:14:27;10.80;99.90
13052;DHT22;6592;47.484;9.726;2022-10-31T00:17:10;10.80;99.90
13052;DHT22;6592;47.484;9.726;2022-10-31T00:22:59;10.80;99.90
13052;DHT22;6592;47.484;9.726;2022-10-31T00:25:29;10.70;99.90
13052;DHT22;6592;47.484;9.726;2022-10-31T00:28:02;10.60;99.90
13052;DHT22;6592;47.484;9.726;2022-10-31T00:30:32;10.60;99.90
13052;DHT22;6592;47.484;9.726;2022-10-31T00:33:03;10.60;99.90
13052;DHT22;6592;47.484;9.726;2022-10-31T00:35:33;10.70;99.90
13052;DHT22;6592;47.484;9.726;2022-10-31T00:38:03;10.80;99.90
13052;DHT22;6592;47.484;9.726;2022-10-31T00:40:31;10.80;99.90
13052;DHT22;6592;47.484;9.726;2022-10-31T00:43:00;10.80;99.90
13052;DHT22;6592;47.484;9.726;2022-10-31T00:45:29;10.80;99.90
13052;DHT22;6592;47.484;9.726;2022-10-31T00:47:58;10.80;99.90
13052;DHT22;6592;47.484;9.726;2022-10-31T00:50:28;10.90;99.90
13052;DHT22;6592;47.484;9.726;2022-10-31T00:52:57;10.80;99.90
13052;DHT22;6592;47.484;9.726;2022-10-31T00:55:38;10.80;99.90
13052;DHT22;6592;47.484;9.726;2022-10-31T00:58:06;10.80;99.90
13052;DHT22;6592;47.484;9.726;2022-10-31T01:00:35;10.90;99.90
13052;DHT22;6592;47.484;9.726;2022-10-31T01:03:04;10.90;99.90
13052;DHT22;6592;47.484;9.726;2022-10-31T01:05:33;10.90;99.90
13052;DHT22;6592;47.484;9.726;2022-10-31T01:08:02;11.00;99.90
13052;DHT22;6592;47.484;9.726;2022-10-31T01:10:30;10.90;99.90
13052;DHT22;6592;47.484;9.726;2022-10-31T01:13:02;10.90;99.90
13052;DHT22;6592;47.484;9.726;2022-10-31T01:15:34;10.90;99.90
13052;DHT22;6592;47.484;9.726;2022-10-31T01:18:02;10.80;99.90
13052;DHT22;6592;47.484;9.726;2022-10-31T01:20:31;10.80;99.90
13052;DHT22;6592;47.484;9.726;2022-10-31T01:23:00;10.70;99.90
13052;DHT22;6592;47.484;9.726;2022-10-31T01:25:32;10.70;99.90
13052;DHT22;6592;47.484;9.726;2022-10-31T01:28:02;10.70;99.90
13052;DHT22;6592;47.484;9.726;2022-10-31T01:30:32;10.60;99.90
13052;DHT22;6592;47.484;9.726;2022-10-31T01:33:01;10.60;99.90
13052;DHT22;6592;47.484;9.726;2022-10-31T01:35:29;10.60;99.90
13052;DHT22;6592;47.484;9.726;2022-10-31T01:37:58;10.60;99.90
13052;DHT22;6592;47.484;9.726;2022-10-31T01:40:29;10.50;99.90
13052;DHT22;6592;47.484;9.726;2022-10-31T01:42:59;10.50;99.90
13052;DHT22;6592;47.484;9.726;2022-10-31T01:45:31;10.40;99.90
13052;DHT22;6592;47.484;9.726;2022-10-31T01:48:00;10.40;99.90
13052;DHT22;6592;47.484;9.726;2022-10-31T01:50:32;10.40;99.90
13052;DHT22;6592;47.484;9.726;2022-10-31T01:53:02;10.40;99.90
13052;DHT22;6592;47.484;9.726;2022-10-31T01:55:35;10.40;99.90
13052;DHT22;6592;47.484;9.726;2022-10-31T01:58:09;10.30;99.90
13052;DHT22;6592;47.484;9.726;2022-10-31T02:00:40;10.30;99.90
13052;DHT22;6592;47.484;9.726;2022-10-31T02:03:10;10.30;99.90
13052;DHT22;6592;47.484;9.726;2022-10-31T02:05:38;10.30;99.90
13052;DHT22;6592;47.484;9.726;2022-10-31T02:08:09;10.20;99.90
13052;DHT22;6592;47.484;9.726;2022-10-31T02:10:40;10.20;99.90
13052;DHT22;6592;47.484;9.726;2022-10-31T02:13:11;10.20;99.90
13052;DHT22;6592;47.484;9.726;2022-10-31T02:15:43;10.10;99.90
13052;DHT22;6592;47.484;9.726;2022-10-31T02:18:13;10.10;99.90
13052;DHT22;6592;47.484;9.726;2022-10-31T02:20:51;10.10;99.90
13052;DHT22;6592;47.484;9.726;2022-10-31T02:32:46;10.00;99.90
13052;DHT22;6592;47.484;9.726;2022-10-31T02:35:26;9.90;99.90
13052;DHT22;6592;47.484;9.726;2022-10-31T02:38:04;9.90;99.90
13052;DHT22;6592;47.484;9.726;2022-10-31T02:40:38;9.90;99.90
13052;DHT22;6592;47.484;9.726;2022-10-31T02:43:13;9.90;99.90
13052;DHT22;6592;47.484;9.726;2022-10-31T02:45:48;9.90;99.90
13052;DHT22;6592;47.484;9.726;2022-10-31T02:48:25;10.00;99.90
13052;DHT22;6592;47.484;9.726;2022-10-31T02:50:57;10.00;99.90
13052;DHT22;6592;47.484;9.726;2022-10-31T02:53:30;9.90;99.90
13052;DHT22;6592;47.484;9.726;2022-10-31T02:56:02;9.90;99.90
13052;DHT22;6592;47.484;9.726;2022-10-31T02:58:38;9.90;99.90
13052;DHT22;6592;47.484;9.726;2022-10-31T03:05:03;9.80;99.90
13052;DHT22;6592;47.484;9.726;2022-10-31T03:07:42;9.80;99.90
13052;DHT22;6592;47.484;9.726;2022-10-31T03:10:20;9.80;99.90
13052;DHT22;6592;47.484;9.726;2022-10-31T03:12:59;9.70;99.90
13052;DHT22;6592;47.484;9.726;2022-10-31T03:15:33;9.70;99.90
13052;DHT22;6592;47.484;9.726;2022-10-31T03:18:06;9.60;99.90
13052;DHT22;6592;47.484;9.726;2022-10-31T03:20:39;9.60;99.90
13052;DHT22;6592;47.484;9.726;2022-10-31T03:23:12;9.60;99.90
13052;DHT22;6592;47.484;9.726;2022-10-31T03:25:42;9.60;99.90
13052;DHT22;6592;47.484;9.726;2022-10-31T03:28:16;9.60;99.90
13052;DHT22;6592;47.484;9.726;2022-10-31T03:30:50;9.60;99.90
13052;DHT22;6592;47.484;9.726;2022-10-31T03:33:24;9.60;99.90
13052;DHT22;6592;47.484;9.726;2022-10-31T03:35:57;9.50;99.90
13052;DHT22;6592;47.484;9.726;2022-10-31T03:38:28;9.50;99.90
13052;DHT22;6592;47.484;9.726;2022-10-31T03:40:59;9.50;99.90
13052;DHT22;6592;47.484;9.726;2022-10-31T03:43:33;9.30;99.90
13052;DHT22;6592;47.484;9.726;2022-10-31T03:46:04;9.40;99.90
13052;DHT22;6592;47.484;9.726;2022-10-31T03:48:33;9.30;99.90
13052;DHT22;6592;47.484;9.726;2022-10-31T03:51:07;9.30;99.90
13052;DHT22;6592;47.484;9.726;2022-10-31T03:53:46;9.30;99.90
13052;DHT22;6592;47.484;9.726;2022-10-31T03:56:29;9.20;99.90
13052;DHT22;6592;47.484;9.726;2022-10-31T03:59:00;9.20;99.90
13052;DHT22;6592;47.484;9.726;2022-10-31T04:01:32;9.20;99.90
13052;DHT22;6592;47.484;9.726;2022-10-31T04:04:06;9.10;99.90
13052;DHT22;6592;47.484;9.726;2022-10-31T04:06:38;9.10;99.90
13052;DHT22;6592;47.484;9.726;2022-10-31T04:09:09;9.10;99.90
13052;DHT22;6592;47.484;9.726;2022-10-31T04:11:42;9.10;99.90
13052;DHT22;6592;47.484;9.726;2022-10-31T04:14:13;9.10;99.90
13052;DHT22;6592;47.484;9.726;2022-10-31T04:16:43;9.10;99.90
13052;DHT22;6592;47.484;9.726;2022-10-31T04:19:13;9.00;99.90
13052;DHT22;6592;47.484;9.726;2022-10-31T04:21:44;9.00;99.90
13052;DHT22;6592;47.484;9.726;2022-10-31T04:24:15;9.00;99.90
13052;DHT22;6592;47.484;9.726;2022-10-31T04:26:45;9.00;99.90
13052;DHT22;6592;47.484;9.726;2022-10-31T04:29:14;9.00;99.90
13052;DHT22;6592;47.484;9.726;2022-10-31T04:31:42;8.90;99.90
13052;DHT22;6592;47.484;9.726;2022-10-31T04:34:10;9.00;99.90
13052;DHT22;6592;47.484;9.726;2022-10-31T04:36:39;8.90;99.90
13052;DHT22;6592;47.484;9.726;2022-10-31T04:39:09;8.90;99.90
13052;DHT22;6592;47.484;9.726;2022-10-31T04:41:37;8.90;99.90
13052;DHT22;6592;47.484;9.726;2022-10-31T04:44:06;8.80;99.90
13052;DHT22;6592;47.484;9.726;2022-10-31T04:46:34;8.80;99.90
13052;DHT22;6592;47.484;9.726;2022-10-31T04:49:03;8.80;99.90
13052;DHT22;6592;47.484;9.726;2022-10-31T04:51:31;8.70;99.90
13052;DHT22;6592;47.484;9.726;2022-10-31T04:54:03;8.70;99.90
13052;DHT22;6592;47.484;9.726;2022-10-31T04:56:33;8.70;99.90
13052;DHT22;6592;47.484;9.726;2022-10-31T04:59:02;8.70;99.90
13052;DHT22;6592;47.484;9.726;2022-10-31T05:01:30;8.60;99.90
13052;DHT22;6592;47.484;9.726;2022-10-31T05:04:00;8.70;99.90
13052;DHT22;6592;47.484;9.726;2022-10-31T05:06:28;8.60;99.90
13052;DHT22;6592;47.484;9.726;2022-10-31T05:08:58;8.50;99.90
13052;DHT22;6592;47.484;9.726;2022-10-31T05:11:28;8.50;99.90
13052;DHT22;6592;47.484;9.726;2022-10-31T05:13:57;8.50;99.90
13052;DHT22;6592;47.484;9.726;2022-10-31T05:16:28;8.50;99.90
13052;DHT22;6592;47.484;9.726;2022-10-31T05:18:56;8.50;99.90
13052;DHT22;6592;47.484;9.726;2022-10-31T05:21:24;8.50;99.90
13052;DHT22;6592;47.484;9.726;2022-10-31T05:23:54;8.50;99.90
13052;DHT22;6592;47.484;9.726;2022-10-31T05:26:25;8.50;99.90
13052;DHT22;6592;47.484;9.726;2022-10-31T05:28:53;8.50;99.90
13052;DHT22;6592;47.484;9.726;2022-10-31T05:31:23;8.40;99.90
13052;DHT22;6592;47.484;9.726;2022-10-31T05:33:55;8.40;99.90
13052;DHT22;6592;47.484;9.726;2022-10-31T05:36:23;8.40;99.90
13052;DHT22;6592;47.484;9.726;2022-10-31T05:38:52;8.40;99.90
13052;DHT22;6592;47.484;9.726;2022-10-31T05:41:21;8.40;99.90
13052;DHT22;6592;47.484;9.726;2022-10-31T05:43:49;8.40;99.90
13052;DHT22;6592;47.484;9.726;2022-10-31T05:46:18;8.40;99.90
13052;DHT22;6592;47.484;9.726;2022-10-31T05:48:48;8.30;99.90
13052;DHT22;6592;47.484;9.726;2022-10-31T05:51:16;8.30;99.90
13052;DHT22;6592;47.484;9.726;2022-10-31T05:53:46;8.30;99.90
13052;DHT22;6592;47.484;9.726;2022-10-31T05:56:15;8.40;99.90
13052;DHT22;6592;47.484;9.726;2022-10-31T05:58:43;8.40;99.90
13052;DHT22;6592;47.484;9.726;2022-10-31T06:01:13;8.40;99.90
13052;DHT22;6592;47.484;9.726;2022-10-31T06:03:43;8.30;99.90
13052;DHT22;6592;47.484;9.726;2022-10-31T06:06:16;8.40;99.90
13052;DHT22;6592;47.484;9.726;2022-10-31T06:08:44;8.40;99.90
13052;DHT22;6592;47.484;9.726;2022-10-31T06:11:13;8.40;99.90
13052;DHT22;6592;47.484;9.726;2022-10-31T06:13:41;8.40;99.90
13052;DHT22;6592;47.484;9.726;2022-10-31T06:16:10;8.40;99.90
13052;DHT22;6592;47.484;9.726;2022-10-31T06:18:39;8.40;99.90
13052;DHT22;6592;47.484;9.726;2022-10-31T06:21:07;8.40;99.90
13052;DHT22;6592;47.484;9.726;2022-10-31T06:23:42;8.40;99.90
13052;DHT22;6592;47.484;9.726;2022-10-31T06:26:10;8.40;99.90
13052;DHT22;6592;47.484;9.726;2022-10-31T06:28:39;8.40;99.90
13052;DHT22;6592;47.484;9.726;2022-10-31T06:31:08;8.50;99.90
13052;DHT22;6592;47.484;9.726;2022-10-31T06:33:37;8.60;99.90
13052;DHT22;6592;47.484;9.726;2022-10-31T06:36:06;8.70;99.90
13052;DHT22;6592;47.484;9.726;2022-10-31T06:38:36;8.70;99.90
13052;DHT22;6592;47.484;9.726;2022-10-31T06:41:08;8.80;99.90
13052;DHT22;6592;47.484;9.726;2022-10-31T06:43:37;8.90;99.90
13052;DHT22;6592;47.484;9.726;2022-10-31T06:46:05;9.10;99.90
13052;DHT22;6592;47.484;9.726;2022-10-31T06:48:34;9.40;99.90
13052;DHT22;6592;47.484;9.726;2022-10-31T06:51:03;9.60;99.90
13052;DHT22;6592;47.484;9.726;2022-10-31T06:53:46;9.90;99.90
13052;DHT22;6592;47.484;9.726;2022-10-31T06:56:21;10.10;99.90
13052;DHT22;6592;47.484;9.726;2022-10-31T06:58:49;10.40;99.90
13052;DHT22;6592;47.484;9.726;2022-10-31T07:01:17;10.50;99.90
13052;DHT22;6592;47.484;9.726;2022-10-31T07:03:47;10.70;99.90
13052;DHT22;6592;47.484;9.726;2022-10-31T07:06:16;10.70;99.90
13052;DHT22;6592;47.484;9.726;2022-10-31T07:08:47;10.80;99.90
13052;DHT22;6592;47.484;9.726;2022-10-31T07:11:15;10.80;99.90
13052;DHT22;6592;47.484;9.726;2022-10-31T07:13:46;10.90;99.90
13052;DHT22;6592;47.484;9.726;2022-10-31T07:16:15;11.00;99.90
13052;DHT22;6592;47.484;9.726;2022-10-31T07:18:44;11.30;99.90
13052;DHT22;6592;47.484;9.726;2022-10-31T07:21:17;11.60;99.90
13052;DHT22;6592;47.484;9.726;2022-10-31T07:23:48;12.20;99.90
13052;DHT22;6592;47.484;9.726;2022-10-31T07:26:16;12.60;99.90
13052;DHT22;6592;47.484;9.726;2022-10-31T07:28:47;13.10;99.90
13052;DHT22;6592;47.484;9.726;2022-10-31T07:31:15;13.60;99.90
13052;DHT22;6592;47.484;9.726;2022-10-31T07:33:43;13.90;99.90
13052;DHT22;6592;47.484;9.726;2022-10-31T07:36:12;14.10;99.90
13052;DHT22;6592;47.484;9.726;2022-10-31T07:38:40;14.20;99.90
13052;DHT22;6592;47.484;9.726;2022-10-31T07:41:08;14.20;99.90
13052;DHT22;6592;47.484;9.726;2022-10-31T07:43:37;14.30;99.90
13052;DHT22;6592;47.484;9.726;2022-10-31T07:46:13;14.40;99.90
13052;DHT22;6592;47.484;9.726;2022-10-31T07:48:43;14.60;99.90
13052;DHT22;6592;47.484;9.726;2022-10-31T07:51:11;14.70;99.90
13052;DHT22;6592;47.484;9.726;2022-10-31T07:53:40;14.70;99.90
13052;DHT22;6592;47.484;9.726;2022-10-31T07:56:09;14.80;99.90
13052;DHT22;6592;47.484;9.726;2022-10-31T07:58:38;14.90;99.90
13052;DHT22;6592;47.484;9.726;2022-10-31T08:01:06;15.00;99.90
13052;DHT22;6592;47.484;9.726;2022-10-31T08:03:36;15.20;99.90
13052;DHT22;6592;47.484;9.726;2022-10-31T08:06:05;15.50;99.90
13052;DHT22;6592;47.484;9.726;2022-10-31T08:08:33;15.60;99.90
13052;DHT22;6592;47.484;9.726;2022-10-31T08:11:04;15.50;99.90
13052;DHT22;6592;47.484;9.726;2022-10-31T08:13:32;15.50;99.90
13052;DHT22;6592;47.484;9.726;2022-10-31T08:16:01;15.40;99.90
13052;DHT22;6592;47.484;9.726;2022-10-31T08:18:30;15.40;99.90
13052;DHT22;6592;47.484;9.726;2022-10-31T08:21:00;15.40;99.90
13052;DHT22;6592;47.484;9.726;2022-10-31T08:23:28;15.30;99.90
13052;DHT22;6592;47.484;9.726;2022-10-31T08:25:57;15.20;99.90
13052;DHT22;6592;47.484;9.726;2022-10-31T08:28:25;15.10;99.90
13052;DHT22;6592;47.484;9.726;2022-10-31T08:30:53;14.70;99.90
13052;DHT22;6592;47.484;9.726;2022-10-31T08:33:21;14.70;99.90
13052;DHT22;6592;47.484;9.726;2022-10-31T08:35:50;14.50;99.90
13052;DHT22;6592;47.484;9.726;2022-10-31T08:38:19;14.30;99.90
13052;DHT22;6592;47.484;9.726;2022-10-31T08:40:48;14.20;99.90
13052;DHT22;6592;47.484;9.726;2022-10-31T08:43:17;14.10;99.90
13052;DHT22;6592;47.484;9.726;2022-10-31T08:45:48;14.00;99.90
13052;DHT22;6592;47.484;9.726;2022-10-31T08:48:17;13.80;99.90
13052;DHT22;6592;47.484;9.726;2022-10-31T08:50:45;13.80;99.90
13052;DHT22;6592;47.484;9.726;2022-10-31T08:53:15;13.70;99.90
13052;DHT22;6592;47.484;9.726;2022-10-31T08:55:46;13.70;99.90
13052;DHT22;6592;47.484;9.726;2022-10-31T08:58:16;13.70;99.90
13052;DHT22;6592;47.484;9.726;2022-10-31T09:00:45;13.80;99.90
13052;DHT22;6592;47.484;9.726;2022-10-31T09:03:15;14.00;99.90
13052;DHT22;6592;47.484;9.726;2022-10-31T09:05:44;14.20;99.90
13052;DHT22;6592;47.484;9.726;2022-10-31T09:08:13;14.40;99.90
13052;DHT22;6592;47.484;9.726;2022-10-31T09:10:45;14.60;99.90
13052;DHT22;6592;47.484;9.726;2022-10-31T09:13:15;14.70;99.90
13052;DHT22;6592;47.484;9.726;2022-10-31T09:15:46;14.80;99.90
13052;DHT22;6592;47.484;9.726;2022-10-31T09:18:16;14.80;99.90
13052;DHT22;6592;47.484;9.726;2022-10-31T09:20:45;14.80;99.90
13052;DHT22;6592;47.484;9.726;2022-10-31T09:23:15;14.90;99.90
13052;DHT22;6592;47.484;9.726;2022-10-31T09:25:46;14.90;99.90
13052;DHT22;6592;47.484;9.726;2022-10-31T09:28:18;14.70;99.90
13052;DHT22;6592;47.484;9.726;2022-10-31T09:30:48;14.50;99.90
13052;DHT22;6592;47.484;9.726;2022-10-31T09:33:17;14.40;99.90
13052;DHT22;6592;47.484;9.726;2022-10-31T09:35:45;14.30;99.90
13052;DHT22;6592;47.484;9.726;2022-10-31T09:38:15;14.20;99.90
13052;DHT22;6592;47.484;9.726;2022-10-31T09:40:54;14.20;99.90
13052;DHT22;6592;47.484;9.726;2022-10-31T09:43:29;14.30;99.90
13052;DHT22;6592;47.484;9.726;2022-10-31T09:46:11;14.60;99.90
13052;DHT22;6592;47.484;9.726;2022-10-31T09:48:55;14.80;99.90
13052;DHT22;6592;47.484;9.726;2022-10-31T09:51:34;14.80;99.90
13052;DHT22;6592;47.484;9.726;2022-10-31T09:54:08;14.90;99.90
13052;DHT22;6592;47.484;9.726;2022-10-31T09:56:40;15.10;99.90
13052;DHT22;6592;47.484;9.726;2022-10-31T09:59:11;15.20;99.90
13052;DHT22;6592;47.484;9.726;2022-10-31T10:01:47;15.40;99.90
13052;DHT22;6592;47.484;9.726;2022-10-31T10:04:31;15.50;99.90
13052;DHT22;6592;47.484;9.726;2022-10-31T10:07:05;15.40;99.90
13052;DHT22;6592;47.484;9.726;2022-10-31T10:09:36;15.50;99.90
13052;DHT22;6592;47.484;9.726;2022-10-31T10:12:13;15.70;99.90
13052;DHT22;6592;47.484;9.726;2022-10-31T10:15:06;15.70;99.90
13052;DHT22;6592;47.484;9.726;2022-10-31T10:17:42;15.80;99.90
13052;DHT22;6592;47.484;9.726;2022-10-31T10:20:21;16.10;99.90
13052;DHT22;6592;47.484;9.726;2022-10-31T10:23:05;16.60;99.90
13052;DHT22;6592;47.484;9.726;2022-10-31T10:25:39;17.20;99.90
13052;DHT22;6592;47.484;9.726;2022-10-31T10:28:17;17.60;99.90
13052;DHT22;6592;47.484;9.726;2022-10-31T10:30:52;18.10;99.90
13052;DHT22;6592;47.484;9.726;2022-10-31T10:33:24;18.60;99.90
13052;DHT22;6592;47.484;9.726;2022-10-31T10:35:57;19.20;99.90
13052;DHT22;6592;47.484;9.726;2022-10-31T10:38:36;20.00;99.90
13052;DHT22;6592;47.484;9.726;2022-10-31T10:41:10;20.80;99.90
13052;DHT22;6592;47.484;9.726;2022-10-31T10:43:43;21.40;99.90
13052;DHT22;6592;47.484;9.726;2022-10-31T10:46:16;21.80;99.90
13052;DHT22;6592;47.484;9.726;2022-10-31T10:49:15;22.00;99.90
13052;DHT22;6592;47.484;9.726;2022-10-31T10:51:46;22.90;99.90
13052;DHT22;6592;47.484;9.726;2022-10-31T10:54:54;23.50;99.90
13052;DHT22;6592;47.484;9.726;2022-10-31T10:57:41;24.70;99.90
13052;DHT22;6592;47.484;9.726;2022-10-31T11:00:20;25.90;99.90
13052;DHT22;6592;47.484;9.726;2022-10-31T11:02:50;27.00;99.90
13052;DHT22;6592;47.484;9.726;2022-10-31T11:05:25;28.00;99.90
13052;DHT22;6592;47.484;9.726;2022-10-31T11:07:54;29.10;99.90
13052;DHT22;6592;47.484;9.726;2022-10-31T11:10:23;30.00;99.90
13052;DHT22;6592;47.484;9.726;2022-10-31T11:13:05;30.70;99.80
13052;DHT22;6592;47.484;9.726;2022-10-31T11:15:39;31.40;94.90
13052;DHT22;6592;47.484;9.726;2022-10-31T11:18:20;31.90;91.50
13052;DHT22;6592;47.484;9.726;2022-10-31T11:20:52;32.20;89.50
13052;DHT22;6592;47.484;9.726;2022-10-31T11:23:22;32.50;90.20
13052;DHT22;6592;47.484;9.726;2022-10-31T11:25:54;32.80;85.20
13052;DHT22;6592;47.484;9.726;2022-10-31T11:28:23;32.80;82.80
13052;DHT22;6592;47.484;9.726;2022-10-31T11:30:56;32.90;79.40
13052;DHT22;6592;47.484;9.726;2022-10-31T11:33:29;33.00;76.80
13052;DHT22;6592;47.484;9.726;2022-10-31T11:36:00;32.50;76.50
13052;DHT22;6592;47.484;9.726;2022-10-31T11:38:33;32.70;74.50
13052;DHT22;6592;47.484;9.726;2022-10-31T11:41:11;32.20;74.30
13052;DHT22;6592;47.484;9.726;2022-10-31T11:43:48;31.90;73.90
13052;DHT22;6592;47.484;9.726;2022-10-31T11:46:22;31.50;74.40
13052;DHT22;6592;47.484;9.726;2022-10-31T11:48:53;31.20;77.60
13052;DHT22;6592;47.484;9.726;2022-10-31T11:51:25;30.30;77.60
13052;DHT22;6592;47.484;9.726;2022-10-31T11:53:57;29.00;78.60
13052;DHT22;6592;47.484;9.726;2022-10-31T11:56:38;27.80;82.30
13052;DHT22;6592;47.484;9.726;2022-10-31T11:59:17;26.30;85.20
13052;DHT22;6592;47.484;9.726;2022-10-31T12:01:49;25.20;89.20
13052;DHT22;6592;47.484;9.726;2022-10-31T12:04:18;24.00;91.30
13052;DHT22;6592;47.484;9.726;2022-10-31T12:06:53;23.50;92.90
13052;DHT22;6592;47.484;9.726;2022-10-31T12:09:23;22.80;94.30
13052;DHT22;6592;47.484;9.726;2022-10-31T12:12:01;22.40;95.50
13052;DHT22;6592;47.484;9.726;2022-10-31T12:14:39;22.00;97.40
13052;DHT22;6592;47.484;9.726;2022-10-31T12:17:13;21.60;98.60
13052;DHT22;6592;47.484;9.726;2022-10-31T12:19:46;21.30;99.90
13052;DHT22;6592;47.484;9.726;2022-10-31T12:22:26;21.10;99.90
13052;DHT22;6592;47.484;9.726;2022-10-31T12:25:12;20.70;99.90
13052;DHT22;6592;47.484;9.726;2022-10-31T12:27:59;20.30;99.90
13052;DHT22;6592;47.484;9.726;2022-10-31T12:30:39;20.10;99.90
13052;DHT22;6592;47.484;9.726;2022-10-31T12:33:23;19.80;99.90
13052;DHT22;6592;47.484;9.726;2022-10-31T12:36:05;19.70;99.90
13052;DHT22;6592;47.484;9.726;2022-10-31T12:38:50;19.70;99.90
13052;DHT22;6592;47.484;9.726;2022-10-31T12:41:33;19.60;99.90
13052;DHT22;6592;47.484;9.726;2022-10-31T12:44:12;19.70;99.90
13052;DHT22;6592;47.484;9.726;2022-10-31T12:46:54;19.70;99.90
13052;DHT22;6592;47.484;9.726;2022-10-31T12:49:39;19.70;99.90
13052;DHT22;6592;47.484;9.726;2022-10-31T12:52:26;19.70;99.90
13052;DHT22;6592;47.484;9.726;2022-10-31T12:55:10;19.50;99.90
13052;DHT22;6592;47.484;9.726;2022-10-31T12:57:45;19.50;99.90
13052;DHT22;6592;47.484;9.726;2022-10-31T13:00:17;19.50;99.90
13052;DHT22;6592;47.484;9.726;2022-10-31T13:02:51;19.40;99.90
13052;DHT22;6592;47.484;9.726;2022-10-31T13:05:29;19.60;99.90
13052;DHT22;6592;47.484;9.726;2022-10-31T13:08:02;19.90;99.90
13052;DHT22;6592;47.484;9.726;2022-10-31T13:10:35;20.10;99.90
13052;DHT22;6592;47.484;9.726;2022-10-31T13:13:09;20.40;99.90
13052;DHT22;6592;47.484;9.726;2022-10-31T13:15:47;20.70;99.90
13052;DHT22;6592;47.484;9.726;2022-10-31T13:18:27;20.90;99.90
13052;DHT22;6592;47.484;9.726;2022-10-31T13:20:58;20.90;99.90
13052;DHT22;6592;47.484;9.726;2022-10-31T13:23:29;21.10;99.90
13052;DHT22;6592;47.484;9.726;2022-10-31T13:26:26;21.70;99.90
13052;DHT22;6592;47.484;9.726;2022-10-31T13:29:05;22.90;99.90
13052;DHT22;6592;47.484;9.726;2022-10-31T13:31:39;23.70;99.90
13052;DHT22;6592;47.484;9.726;2022-10-31T13:34:25;24.60;99.90
13052;DHT22;6592;47.484;9.726;2022-10-31T13:37:02;25.60;99.90
13052;DHT22;6592;47.484;9.726;2022-10-31T13:39:43;26.80;99.90
13052;DHT22;6592;47.484;9.726;2022-10-31T13:42:14;27.80;99.90
13052;DHT22;6592;47.484;9.726;2022-10-31T13:44:43;28.20;99.90
13052;DHT22;6592;47.484;9.726;2022-10-31T13:47:23;29.00;99.60
13052;DHT22;6592;47.484;9.726;2022-10-31T13:50:03;29.80;94.60
13052;DHT22;6592;47.484;9.726;2022-10-31T13:52:33;30.60;92.30
13052;DHT22;6592;47.484;9.726;2022-10-31T13:55:02;31.20;91.70
13052;DHT22;6592;47.484;9.726;2022-10-31T13:57:32;31.00;90.90
13052;DHT22;6592;47.484;9.726;2022-10-31T14:00:06;30.80;90.00
13052;DHT22;6592;47.484;9.726;2022-10-31T14:02:36;31.40;88.00
13052;DHT22;6592;47.484;9.726;2022-10-31T14:05:15;31.40;83.20
13052;DHT22;6592;47.484;9.726;2022-10-31T14:07:49;31.20;82.40
13052;DHT22;6592;47.484;9.726;2022-10-31T14:10:26;31.20;81.50
13052;DHT22;6592;47.484;9.726;2022-10-31T14:13:06;30.90;78.30
13052;DHT22;6592;47.484;9.726;2022-10-31T14:15:57;30.80;78.10
13052;DHT22;6592;47.484;9.726;2022-10-31T14:18:31;30.20;80.70
13052;DHT22;6592;47.484;9.726;2022-10-31T14:21:00;30.20;81.00
13052;DHT22;6592;47.484;9.726;2022-10-31T14:23:36;30.50;77.20
13052;DHT22;6592;47.484;9.726;2022-10-31T14:26:31;30.60;79.60
13052;DHT22;6592;47.484;9.726;2022-10-31T14:29:02;31.10;77.70
13052;DHT22;6592;47.484;9.726;2022-10-31T14:31:35;31.30;78.60
13052;DHT22;6592;47.484;9.726;2022-10-31T14:34:20;31.10;77.80
13052;DHT22;6592;47.484;9.726;2022-10-31T14:37:11;31.20;74.90
13052;DHT22;6592;47.484;9.726;2022-10-31T14:39:57;30.90;75.20
13052;DHT22;6592;47.484;9.726;2022-10-31T14:42:39;30.50;75.70
13052;DHT22;6592;47.484;9.726;2022-10-31T14:45:23;30.60;76.20
13052;DHT22;6592;47.484;9.726;2022-10-31T14:48:11;30.80;76.70
13052;DHT22;6592;47.484;9.726;2022-10-31T14:50:47;30.90;76.50
13052;DHT22;6592;47.484;9.726;2022-10-31T14:53:20;31.10;76.30
13052;DHT22;6592;47.484;9.726;2022-10-31T14:55:53;31.00;75.70
13052;DHT22;6592;47.484;9.726;2022-10-31T14:58:24;30.90;76.00
13052;DHT22;6592;47.484;9.726;2022-10-31T15:00:58;30.70;76.10
13052;DHT22;6592;47.484;9.726;2022-10-31T15:03:31;30.10;77.10
13052;DHT22;6592;47.484;9.726;2022-10-31T15:06:05;29.70;77.80
13052;DHT22;6592;47.484;9.726;2022-10-31T15:08:38;29.20;79.20
13052;DHT22;6592;47.484;9.726;2022-10-31T15:11:13;28.80;80.10
13052;DHT22;6592;47.484;9.726;2022-10-31T15:13:43;28.60;80.10
13052;DHT22;6592;47.484;9.726;2022-10-31T15:16:14;27.70;81.70
13052;DHT22;6592;47.484;9.726;2022-10-31T15:18:52;27.40;83.20
13052;DHT22;6592;47.484;9.726;2022-10-31T15:21:23;27.00;84.40
13052;DHT22;6592;47.484;9.726;2022-10-31T15:23:54;26.60;85.70
13052;DHT22;6592;47.484;9.726;2022-10-31T15:26:27;26.30;86.70
13052;DHT22;6592;47.484;9.726;2022-10-31T15:28:58;26.00;86.90
13052;DHT22;6592;47.484;9.726;2022-10-31T15:31:29;25.70;88.00
13052;DHT22;6592;47.484;9.726;2022-10-31T15:34:01;25.30;89.20
13052;DHT22;6592;47.484;9.726;2022-10-31T15:36:30;24.90;90.10
13052;DHT22;6592;47.484;9.726;2022-10-31T15:39:04;24.10;90.90
13052;DHT22;6592;47.484;9.726;2022-10-31T15:41:37;23.50;91.80
13052;DHT22;6592;47.484;9.726;2022-10-31T15:44:13;22.80;92.70
13052;DHT22;6592;47.484;9.726;2022-10-31T15:46:43;22.10;93.60
13052;DHT22;6592;47.484;9.726;2022-10-31T15:49:23;21.60;94.50
13052;DHT22;6592;47.484;9.726;2022-10-31T15:51:55;21.10;95.60
13052;DHT22;6592;47.484;9.726;2022-10-31T15:54:27;20.50;96.90
13052;DHT22;6592;47.484;9.726;2022-10-31T15:56:58;19.90;98.10
13052;DHT22;6592;47.484;9.726;2022-10-31T15:59:28;19.50;99.00
13052;DHT22;6592;47.484;9.726;2022-10-31T16:02:01;19.10;99.90
13052;DHT22;6592;47.484;9.726;2022-10-31T16:04:31;18.60;99.90
13052;DHT22;6592;47.484;9.726;2022-10-31T16:07:02;18.20;99.90
13052;DHT22;6592;47.484;9.726;2022-10-31T16:09:31;17.90;99.90
13052;DHT22;6592;47.484;9.726;2022-10-31T16:12:04;17.50;99.90
13052;DHT22;6592;47.484;9.726;2022-10-31T16:14:39;17.00;99.90
13052;DHT22;6592;47.484;9.726;2022-10-31T16:17:13;16.70;99.90
13052;DHT22;6592;47.484;9.726;2022-10-31T16:19:48;16.40;99.90
13052;DHT22;6592;47.484;9.726;2022-10-31T16:22:22;16.10;99.90
13052;DHT22;6592;47.484;9.726;2022-10-31T16:24:55;15.90;99.90
13052;DHT22;6592;47.484;9.726;2022-10-31T16:27:30;15.60;99.90
13052;DHT22;6592;47.484;9.726;2022-10-31T16:30:01;15.40;99.90
13052;DHT22;6592;47.484;9.726;2022-10-31T16:32:35;15.20;99.90
13052;DHT22;6592;47.484;9.726;2022-10-31T16:35:24;15.10;99.90
13052;DHT22;6592;47.484;9.726;2022-10-31T16:37:54;14.80;99.90
13052;DHT22;6592;47.484;9.726;2022-10-31T16:40:28;14.60;99.90
13052;DHT22;6592;47.484;9.726;2022-10-31T16:42:59;14.50;99.90